This is the latest recevied weather packets stored in our database for station/object WE0DX-1. If no packets are shown the sender has not sent any weather packets the latest 10 day(s).
| Time | Temp. | Humidity | Pressure | Rain* | Wind** | Luminosity | Snow |
|---|---|---|---|---|---|---|---|
| 1777661794 | 16.67° C | 36% | 1017.6 hPa | 0 mm | - | 132 W/m² | - |
| 1777661490 | 16.67° C | 37% | 1017.4 hPa | 0 mm | - | 200 W/m² | - |
| 1777661187 | 16.67° C | 36% | 1017.2 hPa | 0 mm | - | 885 W/m² | - |
| 1777660881 | 16.67° C | 36% | 1017.5 hPa | 0 mm | - | 197 W/m² | - |
| 1777660578 | 17.22° C | 34% | 1017.5 hPa | 0 mm | - | 419 W/m² | - |
| 1777660275 | 16.11° C | 37% | 1017.4 hPa | 0 mm | - | 793 W/m² | - |
| 1777659971 | 16.67° C | 35% | 1017.5 hPa | 0 mm | - | 146 W/m² | - |
| 1777659668 | 17.22° C | 35% | 1017.7 hPa | 0 mm | - | 261 W/m² | - |
| 1777659366 | 17.78° C | 36% | 1017.4 hPa | 0 mm | - | 806 W/m² | - |
| 1777659062 | 16.67° C | 37% | 1017.6 hPa | 0 mm | - | 760 W/m² | - |
| 1777658760 | 16.67° C | 36% | 1017.6 hPa | 0 mm | - | 760 W/m² | - |
| 1777658456 | 16.67° C | 34% | 1017.6 hPa | 0 mm | - | 748 W/m² | - |
| 1777658153 | 16.67° C | 36% | 1017.8 hPa | 0 mm | - | 769 W/m² | - |
| 1777657850 | 17.22° C | 35% | 1018.1 hPa | 0 mm | - | 744 W/m² | - |
| 1777657547 | 17.22° C | 36% | 1018 hPa | 0 mm | - | 703 W/m² | - |
| 1777657244 | 17.22° C | 40% | 1018.1 hPa | 0 mm | - | 673 W/m² | - |
| 1777656941 | 16.67° C | 35% | 1018 hPa | 0 mm | - | 724 W/m² | - |
| 1777656638 | 16.67° C | 35% | 1018.1 hPa | 0 mm | - | 713 W/m² | - |
| 1777656333 | 16.11° C | 36% | 1018.1 hPa | 0 mm | - | 764 W/m² | - |
| 1777656029 | 16.11° C | 38% | 1018.1 hPa | 0 mm | - | 833 W/m² | - |
| 1777655726 | 16.67° C | 35% | 1018.3 hPa | 0 mm | - | 807 W/m² | - |
| 1777655422 | 16.67° C | 38% | 1018.1 hPa | 0 mm | - | 796 W/m² | - |
| 1777655119 | 16.67° C | 37% | 1018.3 hPa | 0 mm | - | 819 W/m² | - |
| 1777654816 | 16.11° C | 37% | 1018.1 hPa | 0 mm | - | 838 W/m² | - |
| 1777654514 | 16.11° C | 36% | 1018.2 hPa | 0 mm | - | 864 W/m² | - |
* Rain latest hour (hover to see other rain measurements)
** Current wind speed in m/s (hover to see current wind gust speed)